sensor_id;sensor_type;location;lat;lon;timestamp;P1;durP1;ratioP1;P2;durP2;ratioP2
41925;SDS011;27615;51.826;5.692;2022-07-03T00:01:28;1.15;;;0.50;;
41925;SDS011;27615;51.826;5.692;2022-07-03T00:03:53;2.05;;;0.60;;
41925;SDS011;27615;51.826;5.692;2022-07-03T00:06:19;2.40;;;0.65;;
41925;SDS011;27615;51.826;5.692;2022-07-03T00:08:44;2.55;;;0.50;;
41925;SDS011;27615;51.826;5.692;2022-07-03T00:11:10;1.05;;;0.50;;
41925;SDS011;27615;51.826;5.692;2022-07-03T00:13:36;1.35;;;0.57;;
41925;SDS011;27615;51.826;5.692;2022-07-03T00:16:02;3.25;;;0.80;;
41925;SDS011;27615;51.826;5.692;2022-07-03T00:18:28;2.00;;;0.70;;
41925;SDS011;27615;51.826;5.692;2022-07-03T00:20:55;1.40;;;0.73;;
41925;SDS011;27615;51.826;5.692;2022-07-03T00:23:25;1.33;;;0.60;;
41925;SDS011;27615;51.826;5.692;2022-07-03T00:25:54;2.50;;;0.70;;
41925;SDS011;27615;51.826;5.692;2022-07-03T00:28:20;2.85;;;0.70;;
41925;SDS011;27615;51.826;5.692;2022-07-03T00:30:48;1.40;;;0.70;;
41925;SDS011;27615;51.826;5.692;2022-07-03T00:33:15;1.75;;;0.70;;
41925;SDS011;27615;51.826;5.692;2022-07-03T00:35:42;1.42;;;0.70;;
41925;SDS011;27615;51.826;5.692;2022-07-03T00:38:09;1.33;;;0.70;;
41925;SDS011;27615;51.826;5.692;2022-07-03T00:40:36;1.48;;;0.70;;
41925;SDS011;27615;51.826;5.692;2022-07-03T00:43:02;2.80;;;0.90;;
41925;SDS011;27615;51.826;5.692;2022-07-03T00:45:29;1.60;;;0.80;;
41925;SDS011;27615;51.826;5.692;2022-07-03T00:47:59;1.80;;;0.93;;
41925;SDS011;27615;51.826;5.692;2022-07-03T00:50:26;2.00;;;0.90;;
41925;SDS011;27615;51.826;5.692;2022-07-03T00:52:59;2.30;;;1.25;;
41925;SDS011;27615;51.826;5.692;2022-07-03T00:55:27;1.90;;;1.30;;
41925;SDS011;27615;51.826;5.692;2022-07-03T00:57:53;2.70;;;1.73;;
41925;SDS011;27615;51.826;5.692;2022-07-03T01:00:21;3.40;;;1.58;;
41925;SDS011;27615;51.826;5.692;2022-07-03T01:02:51;2.65;;;1.17;;
41925;SDS011;27615;51.826;5.692;2022-07-03T01:05:26;2.38;;;0.90;;
41925;SDS011;27615;51.826;5.692;2022-07-03T01:08:19;2.53;;;1.13;;
41925;SDS011;27615;51.826;5.692;2022-07-03T01:14:03;2.72;;;1.20;;
41925;SDS011;27615;51.826;5.692;2022-07-03T01:19:38;2.40;;;1.13;;
41925;SDS011;27615;51.826;5.692;2022-07-03T01:25:13;3.10;;;1.27;;
41925;SDS011;27615;51.826;5.692;2022-07-03T01:30:16;2.20;;;1.30;;
41925;SDS011;27615;51.826;5.692;2022-07-03T01:32:44;2.42;;;1.48;;
41925;SDS011;27615;51.826;5.692;2022-07-03T01:35:21;1.67;;;1.40;;
41925;SDS011;27615;51.826;5.692;2022-07-03T01:37:50;2.38;;;1.73;;
41925;SDS011;27615;51.826;5.692;2022-07-03T01:40:19;4.32;;;2.03;;
41925;SDS011;27615;51.826;5.692;2022-07-03T01:42:46;4.15;;;2.10;;
41925;SDS011;27615;51.826;5.692;2022-07-03T01:45:14;3.47;;;2.25;;
41925;SDS011;27615;51.826;5.692;2022-07-03T01:47:41;2.92;;;2.00;;
41925;SDS011;27615;51.826;5.692;2022-07-03T01:50:11;3.47;;;1.63;;
41925;SDS011;27615;51.826;5.692;2022-07-03T01:52:39;3.47;;;2.10;;
41925;SDS011;27615;51.826;5.692;2022-07-03T01:55:06;3.47;;;1.88;;
41925;SDS011;27615;51.826;5.692;2022-07-03T01:57:41;2.17;;;1.70;;
41925;SDS011;27615;51.826;5.692;2022-07-03T02:00:12;4.55;;;1.90;;
41925;SDS011;27615;51.826;5.692;2022-07-03T02:02:43;3.80;;;1.70;;
41925;SDS011;27615;51.826;5.692;2022-07-03T02:11:16;3.03;;;1.80;;
41925;SDS011;27615;51.826;5.692;2022-07-03T02:16:43;2.38;;;1.35;;
41925;SDS011;27615;51.826;5.692;2022-07-03T02:19:19;2.15;;;1.50;;
41925;SDS011;27615;51.826;5.692;2022-07-03T02:21:51;1.73;;;1.35;;
41925;SDS011;27615;51.826;5.692;2022-07-03T02:24:23;1.87;;;1.67;;
41925;SDS011;27615;51.826;5.692;2022-07-03T02:26:54;2.65;;;1.85;;
41925;SDS011;27615;51.826;5.692;2022-07-03T02:29:41;3.05;;;1.65;;
41925;SDS011;27615;51.826;5.692;2022-07-03T02:32:12;2.25;;;1.52;;
41925;SDS011;27615;51.826;5.692;2022-07-03T02:34:43;6.20;;;3.20;;
41925;SDS011;27615;51.826;5.692;2022-07-03T02:37:15;3.90;;;2.90;;
41925;SDS011;27615;51.826;5.692;2022-07-03T02:39:54;6.32;;;2.85;;
41925;SDS011;27615;51.826;5.692;2022-07-03T02:42:29;3.15;;;2.15;;
41925;SDS011;27615;51.826;5.692;2022-07-03T02:45:03;5.88;;;2.17;;
41925;SDS011;27615;51.826;5.692;2022-07-03T02:47:33;3.17;;;1.83;;
41925;SDS011;27615;51.826;5.692;2022-07-03T02:50:04;2.78;;;2.05;;
41925;SDS011;27615;51.826;5.692;2022-07-03T02:52:40;1.92;;;1.73;;
41925;SDS011;27615;51.826;5.692;2022-07-03T02:58:05;2.60;;;1.60;;
41925;SDS011;27615;51.826;5.692;2022-07-03T03:03:31;5.13;;;1.85;;
41925;SDS011;27615;51.826;5.692;2022-07-03T03:06:04;2.75;;;2.03;;
41925;SDS011;27615;51.826;5.692;2022-07-03T03:08:46;2.83;;;2.05;;
41925;SDS011;27615;51.826;5.692;2022-07-03T03:11:32;3.55;;;2.20;;
41925;SDS011;27615;51.826;5.692;2022-07-03T03:14:08;3.20;;;2.28;;
41925;SDS011;27615;51.826;5.692;2022-07-03T03:19:05;2.10;;;1.50;;
41925;SDS011;27615;51.826;5.692;2022-07-03T03:21:31;3.28;;;1.98;;
41925;SDS011;27615;51.826;5.692;2022-07-03T03:24:04;3.75;;;1.80;;
41925;SDS011;27615;51.826;5.692;2022-07-03T03:26:30;2.65;;;2.20;;
41925;SDS011;27615;51.826;5.692;2022-07-03T03:28:58;2.97;;;1.88;;
41925;SDS011;27615;51.826;5.692;2022-07-03T03:31:24;2.75;;;1.75;;
41925;SDS011;27615;51.826;5.692;2022-07-03T03:33:50;1.88;;;1.52;;
41925;SDS011;27615;51.826;5.692;2022-07-03T03:36:16;2.83;;;1.88;;
41925;SDS011;27615;51.826;5.692;2022-07-03T03:38:44;3.17;;;1.80;;
41925;SDS011;27615;51.826;5.692;2022-07-03T03:41:10;2.30;;;1.63;;
41925;SDS011;27615;51.826;5.692;2022-07-03T03:43:39;3.20;;;2.35;;
41925;SDS011;27615;51.826;5.692;2022-07-03T03:46:22;2.63;;;2.10;;
41925;SDS011;27615;51.826;5.692;2022-07-03T03:48:48;3.03;;;1.52;;
41925;SDS011;27615;51.826;5.692;2022-07-03T03:51:13;1.83;;;1.50;;
41925;SDS011;27615;51.826;5.692;2022-07-03T03:53:39;3.17;;;2.03;;
41925;SDS011;27615;51.826;5.692;2022-07-03T03:56:06;2.40;;;1.73;;
41925;SDS011;27615;51.826;5.692;2022-07-03T03:58:36;2.75;;;1.98;;
41925;SDS011;27615;51.826;5.692;2022-07-03T04:03:30;1.90;;;1.70;;
41925;SDS011;27615;51.826;5.692;2022-07-03T04:05:56;1.55;;;1.38;;
41925;SDS011;27615;51.826;5.692;2022-07-03T04:08:22;3.50;;;1.45;;
41925;SDS011;27615;51.826;5.692;2022-07-03T04:10:49;3.00;;;1.85;;
41925;SDS011;27615;51.826;5.692;2022-07-03T04:13:15;1.90;;;1.60;;
41925;SDS011;27615;51.826;5.692;2022-07-03T04:15:42;2.42;;;1.80;;
41925;SDS011;27615;51.826;5.692;2022-07-03T04:18:08;2.38;;;2.17;;
41925;SDS011;27615;51.826;5.692;2022-07-03T04:20:33;3.45;;;1.40;;
41925;SDS011;27615;51.826;5.692;2022-07-03T04:22:59;2.05;;;1.42;;
41925;SDS011;27615;51.826;5.692;2022-07-03T04:25:25;3.50;;;1.98;;
41925;SDS011;27615;51.826;5.692;2022-07-03T04:27:51;3.25;;;2.47;;
41925;SDS011;27615;51.826;5.692;2022-07-03T04:30:17;5.05;;;2.70;;
41925;SDS011;27615;51.826;5.692;2022-07-03T04:32:43;2.38;;;2.17;;
41925;SDS011;27615;51.826;5.692;2022-07-03T04:35:08;3.03;;;2.13;;
41925;SDS011;27615;51.826;5.692;2022-07-03T04:37:34;4.10;;;2.20;;
41925;SDS011;27615;51.826;5.692;2022-07-03T04:40:00;2.67;;;2.20;;
41925;SDS011;27615;51.826;5.692;2022-07-03T04:42:25;3.03;;;2.55;;
41925;SDS011;27615;51.826;5.692;2022-07-03T04:44:51;2.95;;;2.30;;
41925;SDS011;27615;51.826;5.692;2022-07-03T04:47:16;3.50;;;2.15;;
41925;SDS011;27615;51.826;5.692;2022-07-03T04:49:42;3.08;;;2.35;;
41925;SDS011;27615;51.826;5.692;2022-07-03T04:52:08;3.08;;;2.60;;
41925;SDS011;27615;51.826;5.692;2022-07-03T04:54:34;3.47;;;2.65;;
41925;SDS011;27615;51.826;5.692;2022-07-03T04:57:00;5.28;;;2.88;;
41925;SDS011;27615;51.826;5.692;2022-07-03T04:59:26;4.63;;;2.72;;
41925;SDS011;27615;51.826;5.692;2022-07-03T05:01:51;3.00;;;2.70;;
41925;SDS011;27615;51.826;5.692;2022-07-03T05:04:17;4.60;;;3.00;;
41925;SDS011;27615;51.826;5.692;2022-07-03T05:06:43;5.30;;;3.05;;
41925;SDS011;27615;51.826;5.692;2022-07-03T05:09:09;4.93;;;3.20;;
41925;SDS011;27615;51.826;5.692;2022-07-03T05:11:35;4.32;;;3.38;;
41925;SDS011;27615;51.826;5.692;2022-07-03T05:14:01;3.72;;;2.60;;
41925;SDS011;27615;51.826;5.692;2022-07-03T05:16:27;4.25;;;2.80;;
41925;SDS011;27615;51.826;5.692;2022-07-03T05:18:54;4.25;;;2.65;;
41925;SDS011;27615;51.826;5.692;2022-07-03T05:21:19;3.22;;;2.80;;
41925;SDS011;27615;51.826;5.692;2022-07-03T05:23:45;4.25;;;2.60;;
41925;SDS011;27615;51.826;5.692;2022-07-03T05:26:10;3.92;;;2.97;;
41925;SDS011;27615;51.826;5.692;2022-07-03T05:28:36;3.13;;;2.67;;
41925;SDS011;27615;51.826;5.692;2022-07-03T05:31:01;3.05;;;2.75;;
41925;SDS011;27615;51.826;5.692;2022-07-03T05:33:27;4.28;;;3.10;;
41925;SDS011;27615;51.826;5.692;2022-07-03T05:35:54;5.13;;;4.00;;
41925;SDS011;27615;51.826;5.692;2022-07-03T05:38:20;6.95;;;4.60;;
41925;SDS011;27615;51.826;5.692;2022-07-03T05:41:05;6.38;;;4.22;;
41925;SDS011;27615;51.826;5.692;2022-07-03T05:43:31;4.68;;;3.78;;
41925;SDS011;27615;51.826;5.692;2022-07-03T05:45:56;5.35;;;4.38;;
41925;SDS011;27615;51.826;5.692;2022-07-03T05:48:22;4.72;;;3.40;;
41925;SDS011;27615;51.826;5.692;2022-07-03T05:50:47;4.15;;;3.45;;
41925;SDS011;27615;51.826;5.692;2022-07-03T05:53:13;5.97;;;3.13;;
41925;SDS011;27615;51.826;5.692;2022-07-03T05:55:38;3.88;;;2.90;;
41925;SDS011;27615;51.826;5.692;2022-07-03T05:58:04;3.70;;;2.53;;
41925;SDS011;27615;51.826;5.692;2022-07-03T06:00:29;2.72;;;1.77;;
41925;SDS011;27615;51.826;5.692;2022-07-03T06:02:55;5.15;;;2.25;;
41925;SDS011;27615;51.826;5.692;2022-07-03T06:05:21;3.47;;;1.80;;
41925;SDS011;27615;51.826;5.692;2022-07-03T06:07:46;4.25;;;1.73;;
41925;SDS011;27615;51.826;5.692;2022-07-03T06:10:12;4.55;;;2.20;;
41925;SDS011;27615;51.826;5.692;2022-07-03T06:12:37;5.53;;;2.17;;
41925;SDS011;27615;51.826;5.692;2022-07-03T06:15:03;4.40;;;2.00;;
41925;SDS011;27615;51.826;5.692;2022-07-03T06:17:29;3.28;;;2.20;;
41925;SDS011;27615;51.826;5.692;2022-07-03T06:19:55;4.05;;;2.00;;
41925;SDS011;27615;51.826;5.692;2022-07-03T06:22:20;2.95;;;1.90;;
41925;SDS011;27615;51.826;5.692;2022-07-03T06:24:46;4.57;;;2.00;;
41925;SDS011;27615;51.826;5.692;2022-07-03T06:27:11;3.85;;;1.92;;
41925;SDS011;27615;51.826;5.692;2022-07-03T06:29:37;4.32;;;1.98;;
41925;SDS011;27615;51.826;5.692;2022-07-03T06:32:02;2.00;;;1.50;;
41925;SDS011;27615;51.826;5.692;2022-07-03T06:34:28;5.75;;;1.85;;
41925;SDS011;27615;51.826;5.692;2022-07-03T06:36:54;3.70;;;1.83;;
41925;SDS011;27615;51.826;5.692;2022-07-03T06:39:19;3.65;;;1.90;;
41925;SDS011;27615;51.826;5.692;2022-07-03T06:41:45;4.68;;;2.45;;
41925;SDS011;27615;51.826;5.692;2022-07-03T06:44:10;3.95;;;2.10;;
41925;SDS011;27615;51.826;5.692;2022-07-03T06:46:36;4.28;;;1.80;;
41925;SDS011;27615;51.826;5.692;2022-07-03T06:49:01;3.25;;;1.60;;
41925;SDS011;27615;51.826;5.692;2022-07-03T06:51:27;3.33;;;1.60;;
41925;SDS011;27615;51.826;5.692;2022-07-03T06:53:52;4.25;;;1.75;;
41925;SDS011;27615;51.826;5.692;2022-07-03T06:56:18;2.42;;;1.40;;
41925;SDS011;27615;51.826;5.692;2022-07-03T06:58:43;4.45;;;1.30;;
41925;SDS011;27615;51.826;5.692;2022-07-03T07:01:12;5.45;;;1.58;;
41925;SDS011;27615;51.826;5.692;2022-07-03T07:03:37;3.15;;;1.30;;
41925;SDS011;27615;51.826;5.692;2022-07-03T07:06:18;2.80;;;1.50;;
41925;SDS011;27615;51.826;5.692;2022-07-03T07:08:44;3.45;;;1.25;;
41925;SDS011;27615;51.826;5.692;2022-07-03T07:11:12;2.05;;;1.00;;
41925;SDS011;27615;51.826;5.692;2022-07-03T07:13:43;5.38;;;1.23;;
41925;SDS011;27615;51.826;5.692;2022-07-03T07:16:08;2.10;;;0.80;;
41925;SDS011;27615;51.826;5.692;2022-07-03T07:18:34;4.32;;;1.42;;
41925;SDS011;27615;51.826;5.692;2022-07-03T07:21:00;3.33;;;1.20;;
41925;SDS011;27615;51.826;5.692;2022-07-03T07:23:25;4.55;;;1.17;;
41925;SDS011;27615;51.826;5.692;2022-07-03T07:25:51;3.38;;;1.60;;
41925;SDS011;27615;51.826;5.692;2022-07-03T07:28:17;5.60;;;1.35;;
41925;SDS011;27615;51.826;5.692;2022-07-03T07:30:43;5.78;;;1.67;;
41925;SDS011;27615;51.826;5.692;2022-07-03T07:33:08;3.35;;;1.10;;
41925;SDS011;27615;51.826;5.692;2022-07-03T07:35:35;4.88;;;1.45;;
41925;SDS011;27615;51.826;5.692;2022-07-03T07:38:00;5.15;;;1.17;;
41925;SDS011;27615;51.826;5.692;2022-07-03T07:40:26;3.40;;;1.02;;
41925;SDS011;27615;51.826;5.692;2022-07-03T07:42:51;3.35;;;1.42;;
41925;SDS011;27615;51.826;5.692;2022-07-03T07:45:17;1.80;;;0.85;;
41925;SDS011;27615;51.826;5.692;2022-07-03T07:47:43;2.15;;;1.33;;
41925;SDS011;27615;51.826;5.692;2022-07-03T07:50:08;5.38;;;1.65;;
41925;SDS011;27615;51.826;5.692;2022-07-03T07:52:35;3.03;;;1.10;;
41925;SDS011;27615;51.826;5.692;2022-07-03T07:55:01;4.30;;;1.02;;
41925;SDS011;27615;51.826;5.692;2022-07-03T07:57:36;2.08;;;0.75;;
41925;SDS011;27615;51.826;5.692;2022-07-03T08:00:06;2.50;;;1.00;;
41925;SDS011;27615;51.826;5.692;2022-07-03T08:02:37;5.47;;;0.98;;
41925;SDS011;27615;51.826;5.692;2022-07-03T08:05:22;3.65;;;1.20;;
41925;SDS011;27615;51.826;5.692;2022-07-03T08:10:39;1.10;;;0.65;;
41925;SDS011;27615;51.826;5.692;2022-07-03T08:13:09;2.10;;;0.70;;
41925;SDS011;27615;51.826;5.692;2022-07-03T08:15:36;2.30;;;0.80;;
41925;SDS011;27615;51.826;5.692;2022-07-03T08:18:02;3.28;;;0.70;;
41925;SDS011;27615;51.826;5.692;2022-07-03T08:20:29;1.75;;;0.77;;
41925;SDS011;27615;51.826;5.692;2022-07-03T08:22:55;1.05;;;0.50;;
41925;SDS011;27615;51.826;5.692;2022-07-03T08:25:21;1.20;;;0.60;;
41925;SDS011;27615;51.826;5.692;2022-07-03T08:27:47;2.47;;;0.60;;
41925;SDS011;27615;51.826;5.692;2022-07-03T08:30:13;1.58;;;0.68;;
41925;SDS011;27615;51.826;5.692;2022-07-03T08:32:49;2.95;;;1.10;;
41925;SDS011;27615;51.826;5.692;2022-07-03T08:35:21;4.00;;;1.17;;
41925;SDS011;27615;51.826;5.692;2022-07-03T08:38:02;2.22;;;0.90;;
41925;SDS011;27615;51.826;5.692;2022-07-03T08:47:41;3.13;;;1.20;;
41925;SDS011;27615;51.826;5.692;2022-07-03T08:50:08;1.95;;;0.90;;
41925;SDS011;27615;51.826;5.692;2022-07-03T08:52:37;3.38;;;1.15;;
41925;SDS011;27615;51.826;5.692;2022-07-03T08:55:25;3.92;;;0.95;;
41925;SDS011;27615;51.826;5.692;2022-07-03T08:57:51;3.75;;;0.90;;
41925;SDS011;27615;51.826;5.692;2022-07-03T09:00:20;4.32;;;1.13;;
41925;SDS011;27615;51.826;5.692;2022-07-03T09:02:47;4.25;;;1.00;;
41925;SDS011;27615;51.826;5.692;2022-07-03T09:05:14;5.22;;;1.10;;
41925;SDS011;27615;51.826;5.692;2022-07-03T09:07:50;2.47;;;0.80;;
41925;SDS011;27615;51.826;5.692;2022-07-03T09:10:17;2.05;;;0.80;;
41925;SDS011;27615;51.826;5.692;2022-07-03T09:12:44;2.83;;;0.82;;
41925;SDS011;27615;51.826;5.692;2022-07-03T09:15:19;3.25;;;1.10;;
41925;SDS011;27615;51.826;5.692;2022-07-03T09:18:12;3.15;;;0.55;;
41925;SDS011;27615;51.826;5.692;2022-07-03T09:20:48;1.70;;;0.65;;
41925;SDS011;27615;51.826;5.692;2022-07-03T09:23:46;2.60;;;0.85;;
41925;SDS011;27615;51.826;5.692;2022-07-03T09:26:16;2.10;;;0.70;;
41925;SDS011;27615;51.826;5.692;2022-07-03T09:28:48;2.20;;;0.70;;
41925;SDS011;27615;51.826;5.692;2022-07-03T09:31:20;4.07;;;0.90;;
41925;SDS011;27615;51.826;5.692;2022-07-03T09:33:54;2.33;;;0.55;;
41925;SDS011;27615;51.826;5.692;2022-07-03T09:36:22;2.47;;;0.50;;
41925;SDS011;27615;51.826;5.692;2022-07-03T09:39:09;3.58;;;0.75;;
41925;SDS011;27615;51.826;5.692;2022-07-03T09:42:00;1.75;;;0.55;;
41925;SDS011;27615;51.826;5.692;2022-07-03T09:49:53;1.75;;;0.50;;
41925;SDS011;27615;51.826;5.692;2022-07-03T09:54:59;1.52;;;0.60;;
41925;SDS011;27615;51.826;5.692;2022-07-03T09:57:31;2.13;;;0.60;;
41925;SDS011;27615;51.826;5.692;2022-07-03T10:00:07;3.53;;;0.60;;
41925;SDS011;27615;51.826;5.692;2022-07-03T10:02:36;1.85;;;0.50;;
41925;SDS011;27615;51.826;5.692;2022-07-03T10:05:16;0.82;;;0.47;;
41925;SDS011;27615;51.826;5.692;2022-07-03T10:07:51;1.75;;;0.50;;
41925;SDS011;27615;51.826;5.692;2022-07-03T10:10:19;1.98;;;0.60;;
41925;SDS011;27615;51.826;5.692;2022-07-03T10:13:00;1.25;;;0.70;;
41925;SDS011;27615;51.826;5.692;2022-07-03T10:15:27;2.05;;;0.52;;
41925;SDS011;27615;51.826;5.692;2022-07-03T10:18:11;2.35;;;0.73;;
41925;SDS011;27615;51.826;5.692;2022-07-03T10:23:14;2.65;;;0.50;;
41925;SDS011;27615;51.826;5.692;2022-07-03T10:25:41;1.50;;;0.63;;
41925;SDS011;27615;51.826;5.692;2022-07-03T10:28:07;1.42;;;0.50;;
41925;SDS011;27615;51.826;5.692;2022-07-03T10:30:35;2.17;;;1.05;;
41925;SDS011;27615;51.826;5.692;2022-07-03T10:33:07;1.90;;;0.60;;
41925;SDS011;27615;51.826;5.692;2022-07-03T10:35:34;1.75;;;0.50;;
41925;SDS011;27615;51.826;5.692;2022-07-03T10:46:30;0.98;;;0.40;;
41925;SDS011;27615;51.826;5.692;2022-07-03T10:48:57;1.48;;;0.50;;
41925;SDS011;27615;51.826;5.692;2022-07-03T10:51:31;1.35;;;0.50;;
41925;SDS011;27615;51.826;5.692;2022-07-03T11:20:32;2.05;;;0.50;;
41925;SDS011;27615;51.826;5.692;2022-07-03T11:25:55;1.20;;;0.50;;
41925;SDS011;27615;51.826;5.692;2022-07-03T11:33:44;1.45;;;0.50;;
41925;SDS011;27615;51.826;5.692;2022-07-03T11:36:51;2.83;;;0.60;;
41925;SDS011;27615;51.826;5.692;2022-07-03T11:39:18;1.55;;;0.60;;
41925;SDS011;27615;51.826;5.692;2022-07-03T11:41:45;1.98;;;0.80;;
41925;SDS011;27615;51.826;5.692;2022-07-03T11:44:15;2.78;;;0.73;;
41925;SDS011;27615;51.826;5.692;2022-07-03T11:46:46;1.95;;;0.70;;
41925;SDS011;27615;51.826;5.692;2022-07-03T11:49:22;1.73;;;0.47;;
41925;SDS011;27615;51.826;5.692;2022-07-03T11:54:22;1.25;;;0.30;;
41925;SDS011;27615;51.826;5.692;2022-07-03T11:56:50;0.82;;;0.35;;
41925;SDS011;27615;51.826;5.692;2022-07-03T11:59:23;1.92;;;0.65;;
41925;SDS011;27615;51.826;5.692;2022-07-03T12:01:49;1.10;;;0.40;;
41925;SDS011;27615;51.826;5.692;2022-07-03T12:04:27;2.35;;;0.65;;
41925;SDS011;27615;51.826;5.692;2022-07-03T12:06:55;1.08;;;0.40;;
41925;SDS011;27615;51.826;5.692;2022-07-03T12:09:23;2.40;;;0.40;;
41925;SDS011;27615;51.826;5.692;2022-07-03T12:11:52;1.25;;;0.40;;
41925;SDS011;27615;51.826;5.692;2022-07-03T12:14:35;0.80;;;0.30;;
41925;SDS011;27615;51.826;5.692;2022-07-03T12:17:11;1.40;;;0.40;;
41925;SDS011;27615;51.826;5.692;2022-07-03T12:19:47;1.85;;;0.38;;
41925;SDS011;27615;51.826;5.692;2022-07-03T12:27:39;1.77;;;0.30;;
41925;SDS011;27615;51.826;5.692;2022-07-03T12:30:09;1.35;;;0.30;;
41925;SDS011;27615;51.826;5.692;2022-07-03T12:32:36;1.30;;;0.60;;
41925;SDS011;27615;51.826;5.692;2022-07-03T12:35:03;1.63;;;0.50;;
41925;SDS011;27615;51.826;5.692;2022-07-03T12:37:33;2.20;;;0.40;;
41925;SDS011;27615;51.826;5.692;2022-07-03T12:40:06;1.08;;;0.38;;
41925;SDS011;27615;51.826;5.692;2022-07-03T12:42:48;0.90;;;0.40;;
41925;SDS011;27615;51.826;5.692;2022-07-03T12:45:18;1.17;;;0.60;;
41925;SDS011;27615;51.826;5.692;2022-07-03T12:47:46;2.50;;;0.40;;
41925;SDS011;27615;51.826;5.692;2022-07-03T12:50:48;1.58;;;0.30;;
41925;SDS011;27615;51.826;5.692;2022-07-03T12:53:29;1.23;;;0.40;;
41925;SDS011;27615;51.826;5.692;2022-07-03T12:56:26;1.35;;;0.60;;
41925;SDS011;27615;51.826;5.692;2022-07-03T12:58:59;1.30;;;0.47;;
41925;SDS011;27615;51.826;5.692;2022-07-03T13:02:08;2.33;;;0.40;;
41925;SDS011;27615;51.826;5.692;2022-07-03T13:04:37;1.38;;;0.50;;
41925;SDS011;27615;51.826;5.692;2022-07-03T13:07:03;1.30;;;0.40;;
41925;SDS011;27615;51.826;5.692;2022-07-03T13:09:32;1.70;;;0.50;;
41925;SDS011;27615;51.826;5.692;2022-07-03T13:12:01;0.95;;;0.40;;
41925;SDS011;27615;51.826;5.692;2022-07-03T13:14:27;2.33;;;0.40;;
41925;SDS011;27615;51.826;5.692;2022-07-03T13:16:55;0.90;;;0.35;;
41925;SDS011;27615;51.826;5.692;2022-07-03T13:19:23;1.27;;;0.40;;
41925;SDS011;27615;51.826;5.692;2022-07-03T13:21:51;1.50;;;0.40;;
41925;SDS011;27615;51.826;5.692;2022-07-03T13:24:19;1.55;;;0.30;;
41925;SDS011;27615;51.826;5.692;2022-07-03T13:26:46;0.98;;;0.45;;
41925;SDS011;27615;51.826;5.692;2022-07-03T13:29:30;2.15;;;0.50;;
41925;SDS011;27615;51.826;5.692;2022-07-03T13:31:55;1.77;;;0.45;;
41925;SDS011;27615;51.826;5.692;2022-07-03T13:34:22;2.03;;;0.80;;
41925;SDS011;27615;51.826;5.692;2022-07-03T13:36:47;1.60;;;0.50;;
41925;SDS011;27615;51.826;5.692;2022-07-03T13:39:14;1.23;;;0.45;;
41925;SDS011;27615;51.826;5.692;2022-07-03T13:41:40;2.00;;;0.47;;
41925;SDS011;27615;51.826;5.692;2022-07-03T13:44:05;1.13;;;0.30;;
41925;SDS011;27615;51.826;5.692;2022-07-03T13:46:31;0.65;;;0.40;;
41925;SDS011;27615;51.826;5.692;2022-07-03T13:48:56;2.42;;;0.50;;
41925;SDS011;27615;51.826;5.692;2022-07-03T13:51:22;1.73;;;0.43;;
41925;SDS011;27615;51.826;5.692;2022-07-03T13:53:56;1.00;;;0.52;;
41925;SDS011;27615;51.826;5.692;2022-07-03T13:56:30;0.98;;;0.30;;
41925;SDS011;27615;51.826;5.692;2022-07-03T13:58:55;0.75;;;0.40;;
41925;SDS011;27615;51.826;5.692;2022-07-03T14:01:21;2.20;;;0.40;;
41925;SDS011;27615;51.826;5.692;2022-07-03T14:03:46;1.20;;;0.50;;
41925;SDS011;27615;51.826;5.692;2022-07-03T14:06:12;3.15;;;0.50;;
41925;SDS011;27615;51.826;5.692;2022-07-03T14:08:38;0.90;;;0.40;;
41925;SDS011;27615;51.826;5.692;2022-07-03T14:11:03;2.65;;;0.60;;
41925;SDS011;27615;51.826;5.692;2022-07-03T14:13:29;1.02;;;0.47;;
41925;SDS011;27615;51.826;5.692;2022-07-03T14:15:55;0.88;;;0.40;;
41925;SDS011;27615;51.826;5.692;2022-07-03T14:18:20;1.83;;;0.50;;
41925;SDS011;27615;51.826;5.692;2022-07-03T14:20:46;0.73;;;0.43;;
41925;SDS011;27615;51.826;5.692;2022-07-03T14:23:11;2.65;;;0.52;;
41925;SDS011;27615;51.826;5.692;2022-07-03T14:25:37;1.13;;;0.40;;
41925;SDS011;27615;51.826;5.692;2022-07-03T14:28:02;1.02;;;0.40;;
41925;SDS011;27615;51.826;5.692;2022-07-03T14:30:47;2.80;;;0.40;;
41925;SDS011;27615;51.826;5.692;2022-07-03T14:33:31;1.55;;;0.50;;
41925;SDS011;27615;51.826;5.692;2022-07-03T14:35:56;1.45;;;0.40;;
41925;SDS011;27615;51.826;5.692;2022-07-03T14:38:22;1.35;;;0.30;;
41925;SDS011;27615;51.826;5.692;2022-07-03T14:40:47;2.65;;;0.88;;
41925;SDS011;27615;51.826;5.692;2022-07-03T14:43:13;1.38;;;0.55;;
41925;SDS011;27615;51.826;5.692;2022-07-03T14:45:38;3.03;;;0.60;;
41925;SDS011;27615;51.826;5.692;2022-07-03T14:48:04;1.27;;;0.50;;
41925;SDS011;27615;51.826;5.692;2022-07-03T14:50:30;3.42;;;1.05;;
41925;SDS011;27615;51.826;5.692;2022-07-03T14:53:16;1.60;;;0.52;;
41925;SDS011;27615;51.826;5.692;2022-07-03T14:55:55;1.48;;;0.70;;
41925;SDS011;27615;51.826;5.692;2022-07-03T14:58:22;0.95;;;0.40;;
41925;SDS011;27615;51.826;5.692;2022-07-03T15:00:56;1.15;;;0.50;;
41925;SDS011;27615;51.826;5.692;2022-07-03T15:03:30;1.05;;;0.47;;
41925;SDS011;27615;51.826;5.692;2022-07-03T15:06:07;2.47;;;0.60;;
41925;SDS011;27615;51.826;5.692;2022-07-03T15:08:52;1.50;;;0.57;;
41925;SDS011;27615;51.826;5.692;2022-07-03T15:11:27;1.52;;;0.50;;
41925;SDS011;27615;51.826;5.692;2022-07-03T15:14:36;1.83;;;0.40;;
41925;SDS011;27615;51.826;5.692;2022-07-03T15:17:17;0.90;;;0.30;;
41925;SDS011;27615;51.826;5.692;2022-07-03T15:19:45;2.17;;;0.55;;
41925;SDS011;27615;51.826;5.692;2022-07-03T15:22:13;3.50;;;0.60;;
41925;SDS011;27615;51.826;5.692;2022-07-03T15:24:42;2.17;;;0.47;;
41925;SDS011;27615;51.826;5.692;2022-07-03T15:27:09;1.13;;;0.40;;
41925;SDS011;27615;51.826;5.692;2022-07-03T15:29:37;1.23;;;0.40;;
41925;SDS011;27615;51.826;5.692;2022-07-03T15:32:03;1.98;;;0.50;;
41925;SDS011;27615;51.826;5.692;2022-07-03T15:34:29;1.55;;;0.30;;
41925;SDS011;27615;51.826;5.692;2022-07-03T15:37:11;2.30;;;0.52;;
41925;SDS011;27615;51.826;5.692;2022-07-03T15:40:24;2.03;;;0.70;;
41925;SDS011;27615;51.826;5.692;2022-07-03T15:53:51;2.07;;;0.37;;
41925;SDS011;27615;51.826;5.692;2022-07-03T15:56:24;2.25;;;0.40;;
41925;SDS011;27615;51.826;5.692;2022-07-03T15:58:56;0.90;;;0.30;;
41925;SDS011;27615;51.826;5.692;2022-07-03T16:01:28;0.80;;;0.50;;
41925;SDS011;27615;51.826;5.692;2022-07-03T16:04:33;0.88;;;0.60;;
41925;SDS011;27615;51.826;5.692;2022-07-03T16:07:08;1.58;;;0.30;;
41925;SDS011;27615;51.826;5.692;2022-07-03T16:09:35;1.58;;;0.35;;
41925;SDS011;27615;51.826;5.692;2022-07-03T16:12:01;1.33;;;0.30;;
41925;SDS011;27615;51.826;5.692;2022-07-03T16:14:28;1.25;;;0.30;;
41925;SDS011;27615;51.826;5.692;2022-07-03T16:16:58;1.02;;;0.30;;
41925;SDS011;27615;51.826;5.692;2022-07-03T16:19:30;1.25;;;0.30;;
41925;SDS011;27615;51.826;5.692;2022-07-03T16:21:56;1.05;;;0.30;;
41925;SDS011;27615;51.826;5.692;2022-07-03T16:24:24;2.23;;;0.37;;
41925;SDS011;27615;51.826;5.692;2022-07-03T16:26:51;0.93;;;0.20;;
41925;SDS011;27615;51.826;5.692;2022-07-03T16:29:17;0.70;;;0.30;;
41925;SDS011;27615;51.826;5.692;2022-07-03T16:31:44;1.35;;;0.43;;
41925;SDS011;27615;51.826;5.692;2022-07-03T16:34:28;0.90;;;0.30;;
41925;SDS011;27615;51.826;5.692;2022-07-03T16:37:08;1.50;;;0.30;;
41925;SDS011;27615;51.826;5.692;2022-07-03T16:39:40;1.50;;;0.30;;
41925;SDS011;27615;51.826;5.692;2022-07-03T16:42:10;0.63;;;0.22;;
41925;SDS011;27615;51.826;5.692;2022-07-03T16:44:37;1.33;;;0.20;;
41925;SDS011;27615;51.826;5.692;2022-07-03T16:47:06;1.85;;;0.47;;
41925;SDS011;27615;51.826;5.692;2022-07-03T16:49:34;0.52;;;0.30;;
41925;SDS011;27615;51.826;5.692;2022-07-03T16:52:04;0.77;;;0.43;;
41925;SDS011;27615;51.826;5.692;2022-07-03T16:54:35;1.02;;;0.20;;
41925;SDS011;27615;51.826;5.692;2022-07-03T16:57:05;0.70;;;0.20;;
41925;SDS011;27615;51.826;5.692;2022-07-03T16:59:32;0.77;;;0.20;;